sensor_id;sensor_type;location;lat;lon;timestamp;pressure;altitude;pressure_sealevel;temperature;humidity
71768;BME280;59604;52.138;5.446;2023-01-28T00:01:38;103208.69;;;2.34;89.71
71768;BME280;59604;52.138;5.446;2023-01-28T00:04:05;103198.38;;;2.32;89.40
71768;BME280;59604;52.138;5.446;2023-01-28T00:06:32;103199.38;;;2.30;89.38
71768;BME280;59604;52.138;5.446;2023-01-28T00:08:58;103205.50;;;2.29;89.14
71768;BME280;59604;52.138;5.446;2023-01-28T00:11:25;103209.91;;;2.27;88.64
71768;BME280;59604;52.138;5.446;2023-01-28T00:13:52;103212.53;;;2.27;88.29
71768;BME280;59604;52.138;5.446;2023-01-28T00:16:20;103207.41;;;2.25;88.04
71768;BME280;59604;52.138;5.446;2023-01-28T00:18:52;103210.84;;;2.26;88.31
71768;BME280;59604;52.138;5.446;2023-01-28T00:21:19;103210.00;;;2.25;87.93
71768;BME280;59604;52.138;5.446;2023-01-28T00:23:49;103208.25;;;2.26;87.84
71768;BME280;59604;52.138;5.446;2023-01-28T00:26:17;103210.00;;;2.25;88.06
71768;BME280;59604;52.138;5.446;2023-01-28T00:28:44;103206.63;;;2.23;87.95
71768;BME280;59604;52.138;5.446;2023-01-28T00:31:20;103210.00;;;2.25;88.56
71768;BME280;59604;52.138;5.446;2023-01-28T00:33:48;103209.09;;;2.26;88.38
71768;BME280;59604;52.138;5.446;2023-01-28T00:36:19;103224.59;;;2.28;88.18
71768;BME280;59604;52.138;5.446;2023-01-28T00:38:51;103210.84;;;2.26;87.94
71768;BME280;59604;52.138;5.446;2023-01-28T00:41:19;103210.84;;;2.26;88.61
71768;BME280;59604;52.138;5.446;2023-01-28T00:43:50;103211.69;;;2.26;88.57
71768;BME280;59604;52.138;5.446;2023-01-28T00:46:18;103213.44;;;2.26;88.24
71768;BME280;59604;52.138;5.446;2023-01-28T00:48:45;103207.41;;;2.25;88.30
71768;BME280;59604;52.138;5.446;2023-01-28T00:51:14;103210.75;;;2.27;88.66
71768;BME280;59604;52.138;5.446;2023-01-28T00:53:42;103213.34;;;2.27;88.60
71768;BME280;59604;52.138;5.446;2023-01-28T00:56:13;103213.31;;;2.29;88.32
71768;BME280;59604;52.138;5.446;2023-01-28T00:58:40;103210.63;;;2.30;88.54
71768;BME280;59604;52.138;5.446;2023-01-28T01:01:12;103211.53;;;2.29;88.65
71768;BME280;59604;52.138;5.446;2023-01-28T01:03:40;103207.22;;;2.28;89.18
71768;BME280;59604;52.138;5.446;2023-01-28T01:06:07;103199.44;;;2.28;88.97
71768;BME280;59604;52.138;5.446;2023-01-28T01:08:35;103201.19;;;2.28;89.51
71768;BME280;59604;52.138;5.446;2023-01-28T01:11:06;103192.41;;;2.30;89.01
71768;BME280;59604;52.138;5.446;2023-01-28T01:13:33;103199.28;;;2.31;89.74
71768;BME280;59604;52.138;5.446;2023-01-28T01:16:09;103199.28;;;2.31;89.37
71768;BME280;59604;52.138;5.446;2023-01-28T01:18:38;103195.94;;;2.29;89.59
71768;BME280;59604;52.138;5.446;2023-01-28T01:21:14;103197.59;;;2.30;89.50
71768;BME280;59604;52.138;5.446;2023-01-28T01:23:43;103201.13;;;2.29;88.73
71768;BME280;59604;52.138;5.446;2023-01-28T01:26:10;103203.78;;;2.28;89.06
71768;BME280;59604;52.138;5.446;2023-01-28T01:28:38;103205.56;;;2.27;88.54
71768;BME280;59604;52.138;5.446;2023-01-28T01:31:13;103203.03;;;2.26;88.41
71768;BME280;59604;52.138;5.446;2023-01-28T01:33:41;103206.56;;;2.25;88.62
71768;BME280;59604;52.138;5.446;2023-01-28T01:36:09;103211.00;;;2.23;88.63
71768;BME280;59604;52.138;5.446;2023-01-28T01:38:36;103211.81;;;2.23;88.78
71768;BME280;59604;52.138;5.446;2023-01-28T01:41:04;103207.59;;;2.21;88.53
71768;BME280;59604;52.138;5.446;2023-01-28T01:43:46;103202.50;;;2.19;87.60
71768;BME280;59604;52.138;5.446;2023-01-28T01:49:13;103224.28;;;2.16;87.25
71768;BME280;59604;52.138;5.446;2023-01-28T01:51:42;103220.94;;;2.14;86.74
71768;BME280;59604;52.138;5.446;2023-01-28T01:54:10;103227.03;;;2.13;86.38
71768;BME280;59604;52.138;5.446;2023-01-28T01:56:40;103222.69;;;2.14;86.60
71768;BME280;59604;52.138;5.446;2023-01-28T01:59:11;103220.97;;;2.13;86.39
71768;BME280;59604;52.138;5.446;2023-01-28T02:01:40;103220.09;;;2.14;86.19
71768;BME280;59604;52.138;5.446;2023-01-28T02:04:12;103226.13;;;2.14;86.46
71768;BME280;59604;52.138;5.446;2023-01-28T02:06:41;103222.59;;;2.15;86.61
71768;BME280;59604;52.138;5.446;2023-01-28T02:09:27;103223.44;;;2.16;86.15
71768;BME280;59604;52.138;5.446;2023-01-28T02:12:04;103220.00;;;2.15;86.56
71768;BME280;59604;52.138;5.446;2023-01-28T02:14:35;103229.56;;;2.15;85.94
71768;BME280;59604;52.138;5.446;2023-01-28T02:17:03;103231.38;;;2.13;85.99
71768;BME280;59604;52.138;5.446;2023-01-28T02:19:36;103222.75;;;2.12;86.06
71768;BME280;59604;52.138;5.446;2023-01-28T02:22:14;103228.88;;;2.11;85.94
71768;BME280;59604;52.138;5.446;2023-01-28T02:27:21;103232.44;;;2.09;85.66
71768;BME280;59604;52.138;5.446;2023-01-28T02:30:05;103238.56;;;2.08;85.20
71768;BME280;59604;52.138;5.446;2023-01-28T02:32:39;103239.50;;;2.07;85.83
71768;BME280;59604;52.138;5.446;2023-01-28T02:35:23;103231.84;;;2.04;85.43
71768;BME280;59604;52.138;5.446;2023-01-28T02:37:57;103230.06;;;2.04;85.34
71768;BME280;59604;52.138;5.446;2023-01-28T02:40:31;103231.00;;;2.03;85.79
71768;BME280;59604;52.138;5.446;2023-01-28T02:42:59;103223.25;;;2.02;85.87
71768;BME280;59604;52.138;5.446;2023-01-28T02:45:31;103230.06;;;2.04;85.49
71768;BME280;59604;52.138;5.446;2023-01-28T02:48:19;103229.97;;;2.06;84.97
71768;BME280;59604;52.138;5.446;2023-01-28T02:51:12;103235.19;;;2.06;84.58
71768;BME280;59604;52.138;5.446;2023-01-28T02:53:50;103237.78;;;2.06;84.47
71768;BME280;59604;52.138;5.446;2023-01-28T02:56:56;103238.78;;;2.03;84.26
71768;BME280;59604;52.138;5.446;2023-01-28T02:59:38;103231.84;;;2.04;84.39
71768;BME280;59604;52.138;5.446;2023-01-28T03:02:23;103238.00;;;2.01;84.28
71768;BME280;59604;52.138;5.446;2023-01-28T03:07:23;103214.63;;;2.01;84.00
71768;BME280;59604;52.138;5.446;2023-01-28T03:09:54;103217.22;;;2.01;84.40
71768;BME280;59604;52.138;5.446;2023-01-28T03:12:26;103222.50;;;2.00;84.10
71768;BME280;59604;52.138;5.446;2023-01-28T03:15:24;103221.81;;;1.96;84.04
71768;BME280;59604;52.138;5.446;2023-01-28T03:29:45;103223.97;;;1.86;84.38
71768;BME280;59604;52.138;5.446;2023-01-28T03:32:32;103222.22;;;1.87;83.97
71768;BME280;59604;52.138;5.446;2023-01-28T03:35:21;103229.97;;;1.88;83.65
71768;BME280;59604;52.138;5.446;2023-01-28T03:38:08;103226.44;;;1.89;84.44
71768;BME280;59604;52.138;5.446;2023-01-28T03:40:58;103229.03;;;1.89;84.20
71768;BME280;59604;52.138;5.446;2023-01-28T03:43:29;103230.72;;;1.90;84.40
71768;BME280;59604;52.138;5.446;2023-01-28T03:45:56;103227.22;;;1.91;84.67
71768;BME280;59604;52.138;5.446;2023-01-28T03:48:25;103225.47;;;1.92;84.22
71768;BME280;59604;52.138;5.446;2023-01-28T03:50:57;103225.59;;;1.89;83.84
71768;BME280;59604;52.138;5.446;2023-01-28T03:53:26;103234.38;;;1.86;83.88
71768;BME280;59604;52.138;5.446;2023-01-28T03:55:54;103237.13;;;1.83;83.72
71768;BME280;59604;52.138;5.446;2023-01-28T03:58:22;103228.47;;;1.83;83.01
71768;BME280;59604;52.138;5.446;2023-01-28T04:00:53;103229.31;;;1.83;83.35
71768;BME280;59604;52.138;5.446;2023-01-28T04:03:20;103229.31;;;1.83;82.81
71768;BME280;59604;52.138;5.446;2023-01-28T04:06:02;103224.97;;;1.84;83.45
71768;BME280;59604;52.138;5.446;2023-01-28T04:08:30;103232.94;;;1.81;83.51
71768;BME280;59604;52.138;5.446;2023-01-28T04:10:57;103234.66;;;1.80;83.39
71768;BME280;59604;52.138;5.446;2023-01-28T04:13:23;103233.81;;;1.80;82.87
71768;BME280;59604;52.138;5.446;2023-01-28T04:15:50;103239.00;;;1.80;82.95
71768;BME280;59604;52.138;5.446;2023-01-28T04:18:16;103239.09;;;1.78;83.62
71768;BME280;59604;52.138;5.446;2023-01-28T04:20:47;103246.06;;;1.78;83.15
71768;BME280;59604;52.138;5.446;2023-01-28T04:23:14;103246.94;;;1.77;83.46
71768;BME280;59604;52.138;5.446;2023-01-28T04:25:40;103243.38;;;1.79;83.30
71768;BME280;59604;52.138;5.446;2023-01-28T04:28:07;103249.41;;;1.80;83.22
71768;BME280;59604;52.138;5.446;2023-01-28T04:30:33;103259.88;;;1.78;83.82
71768;BME280;59604;52.138;5.446;2023-01-28T04:33:00;103269.50;;;1.76;83.43
71768;BME280;59604;52.138;5.446;2023-01-28T04:35:27;103263.53;;;1.74;82.84
71768;BME280;59604;52.138;5.446;2023-01-28T04:37:53;103270.53;;;1.72;82.85
71768;BME280;59604;52.138;5.446;2023-01-28T04:40:20;103265.44;;;1.71;82.45
71768;BME280;59604;52.138;5.446;2023-01-28T04:42:56;103270.63;;;1.71;82.60
71768;BME280;59604;52.138;5.446;2023-01-28T04:45:23;103261.06;;;1.71;82.99
71768;BME280;59604;52.138;5.446;2023-01-28T04:47:49;103263.59;;;1.73;82.72
71768;BME280;59604;52.138;5.446;2023-01-28T04:50:16;103268.78;;;1.73;83.00
71768;BME280;59604;52.138;5.446;2023-01-28T04:52:43;103261.91;;;1.72;82.73
71768;BME280;59604;52.138;5.446;2023-01-28T04:55:10;103261.91;;;1.72;83.20
71768;BME280;59604;52.138;5.446;2023-01-28T04:57:36;103250.78;;;1.69;82.76
71768;BME280;59604;52.138;5.446;2023-01-28T05:00:03;103255.03;;;1.71;82.85
71768;BME280;59604;52.138;5.446;2023-01-28T05:02:31;103254.19;;;1.70;82.42
71768;BME280;59604;52.138;5.446;2023-01-28T05:04:57;103244.56;;;1.72;83.13
71768;BME280;59604;52.138;5.446;2023-01-28T05:07:24;103235.94;;;1.72;83.22
71768;BME280;59604;52.138;5.446;2023-01-28T05:09:50;103243.81;;;1.70;83.16
71768;BME280;59604;52.138;5.446;2023-01-28T05:12:17;103243.03;;;1.68;83.06
71768;BME280;59604;52.138;5.446;2023-01-28T05:14:46;103246.53;;;1.67;82.72
71768;BME280;59604;52.138;5.446;2023-01-28T05:17:12;103242.28;;;1.66;83.37
71768;BME280;59604;52.138;5.446;2023-01-28T05:19:40;103241.34;;;1.67;83.61
71768;BME280;59604;52.138;5.446;2023-01-28T05:22:07;103239.66;;;1.66;83.50
71768;BME280;59604;52.138;5.446;2023-01-28T05:24:33;103237.91;;;1.66;83.83
71768;BME280;59604;52.138;5.446;2023-01-28T05:27:00;103243.09;;;1.66;83.38
71768;BME280;59604;52.138;5.446;2023-01-28T05:29:26;103243.94;;;1.67;83.78
71768;BME280;59604;52.138;5.446;2023-01-28T05:31:54;103244.78;;;1.67;83.68
71768;BME280;59604;52.138;5.446;2023-01-28T05:34:20;103247.31;;;1.69;83.66
71768;BME280;59604;52.138;5.446;2023-01-28T05:36:47;103250.81;;;1.68;83.83
71768;BME280;59604;52.138;5.446;2023-01-28T05:39:14;103255.25;;;1.66;83.52
71768;BME280;59604;52.138;5.446;2023-01-28T05:41:41;103251.03;;;1.63;83.80
71768;BME280;59604;52.138;5.446;2023-01-28T05:44:08;103254.56;;;1.62;82.93
71768;BME280;59604;52.138;5.446;2023-01-28T05:46:34;103251.88;;;1.64;83.21
71768;BME280;59604;52.138;5.446;2023-01-28T05:49:01;103245.00;;;1.63;83.53
71768;BME280;59604;52.138;5.446;2023-01-28T05:51:28;103245.00;;;1.63;83.85
71768;BME280;59604;52.138;5.446;2023-01-28T05:53:54;103251.88;;;1.64;83.62
71768;BME280;59604;52.138;5.446;2023-01-28T05:56:21;103246.75;;;1.62;83.65
71768;BME280;59604;52.138;5.446;2023-01-28T05:58:48;103250.34;;;1.60;83.38
71768;BME280;59604;52.138;5.446;2023-01-28T06:01:14;103252.00;;;1.61;82.71
71768;BME280;59604;52.138;5.446;2023-01-28T06:03:41;103247.78;;;1.58;82.50
71768;BME280;59604;52.138;5.446;2023-01-28T06:06:08;103242.53;;;1.60;82.39
71768;BME280;59604;52.138;5.446;2023-01-28T06:08:34;103247.75;;;1.60;82.90
71768;BME280;59604;52.138;5.446;2023-01-28T06:11:02;103246.94;;;1.58;83.33
71768;BME280;59604;52.138;5.446;2023-01-28T06:13:29;103249.75;;;1.53;82.97
71768;BME280;59604;52.138;5.446;2023-01-28T06:15:55;103255.88;;;1.52;83.29
71768;BME280;59604;52.138;5.446;2023-01-28T06:18:22;103260.16;;;1.53;83.32
71768;BME280;59604;52.138;5.446;2023-01-28T06:20:49;103257.50;;;1.55;83.20
71768;BME280;59604;52.138;5.446;2023-01-28T06:23:16;103253.31;;;1.51;83.55
71768;BME280;59604;52.138;5.446;2023-01-28T06:25:42;103250.03;;;1.47;83.69
71768;BME280;59604;52.138;5.446;2023-01-28T06:28:09;103248.31;;;1.48;83.68
71768;BME280;59604;52.138;5.446;2023-01-28T06:30:35;103250.91;;;1.48;83.90
71768;BME280;59604;52.138;5.446;2023-01-28T06:33:02;103248.44;;;1.44;83.42
71768;BME280;59604;52.138;5.446;2023-01-28T06:35:29;103247.59;;;1.44;83.52
71768;BME280;59604;52.138;5.446;2023-01-28T06:37:55;103255.22;;;1.47;83.58
71768;BME280;59604;52.138;5.446;2023-01-28T06:40:22;103267.31;;;1.48;83.96
71768;BME280;59604;52.138;5.446;2023-01-28T06:42:50;103266.47;;;1.48;84.13
71768;BME280;59604;52.138;5.446;2023-01-28T06:45:16;103263.94;;;1.46;84.03
71768;BME280;59604;52.138;5.446;2023-01-28T06:47:43;103270.81;;;1.47;83.95
71768;BME280;59604;52.138;5.446;2023-01-28T06:50:10;103278.47;;;1.50;84.28
71768;BME280;59604;52.138;5.446;2023-01-28T06:52:37;103269.13;;;1.46;83.77
71768;BME280;59604;52.138;5.446;2023-01-28T06:55:03;103276.06;;;1.45;83.67
71768;BME280;59604;52.138;5.446;2023-01-28T06:57:30;103281.28;;;1.45;83.45
71768;BME280;59604;52.138;5.446;2023-01-28T06:59:57;103286.59;;;1.42;83.99
71768;BME280;59604;52.138;5.446;2023-01-28T07:02:23;103290.16;;;1.40;84.16
71768;BME280;59604;52.138;5.446;2023-01-28T07:04:53;103293.53;;;1.42;83.76
71768;BME280;59604;52.138;5.446;2023-01-28T07:07:19;103284.91;;;1.41;84.43
71768;BME280;59604;52.138;5.446;2023-01-28T07:09:46;103284.84;;;1.43;84.39
71768;BME280;59604;52.138;5.446;2023-01-28T07:12:12;103283.94;;;1.44;83.72
71768;BME280;59604;52.138;5.446;2023-01-28T07:14:39;103283.94;;;1.44;84.62
71768;BME280;59604;52.138;5.446;2023-01-28T07:17:05;103279.66;;;1.43;83.76
71768;BME280;59604;52.138;5.446;2023-01-28T07:19:32;103277.97;;;1.42;84.17
71768;BME280;59604;52.138;5.446;2023-01-28T07:21:58;103283.16;;;1.42;84.44
71768;BME280;59604;52.138;5.446;2023-01-28T07:24:29;103295.34;;;1.40;84.76
71768;BME280;59604;52.138;5.446;2023-01-28T07:26:56;103293.53;;;1.42;84.77
71768;BME280;59604;52.138;5.446;2023-01-28T07:29:22;103293.63;;;1.40;83.85
71768;BME280;59604;52.138;5.446;2023-01-28T07:31:49;103291.06;;;1.39;83.95
71768;BME280;59604;52.138;5.446;2023-01-28T07:34:16;103290.31;;;1.37;83.86
71768;BME280;59604;52.138;5.446;2023-01-28T07:36:42;103305.91;;;1.37;83.23
71768;BME280;59604;52.138;5.446;2023-01-28T07:39:09;103306.75;;;1.37;83.44
71768;BME280;59604;52.138;5.446;2023-01-28T07:41:35;103316.22;;;1.38;83.55
71768;BME280;59604;52.138;5.446;2023-01-28T07:44:02;103306.75;;;1.37;83.18
71768;BME280;59604;52.138;5.446;2023-01-28T07:46:29;103316.22;;;1.38;83.42
71768;BME280;59604;52.138;5.446;2023-01-28T07:48:55;103326.59;;;1.38;83.54
71768;BME280;59604;52.138;5.446;2023-01-28T07:51:22;103332.63;;;1.39;84.01
71768;BME280;59604;52.138;5.446;2023-01-28T07:53:49;103330.09;;;1.37;83.94
71768;BME280;59604;52.138;5.446;2023-01-28T07:56:15;103313.59;;;1.38;83.63
71768;BME280;59604;52.138;5.446;2023-01-28T07:58:42;103324.78;;;1.40;83.88
71768;BME280;59604;52.138;5.446;2023-01-28T08:01:08;103317.00;;;1.40;84.27
71768;BME280;59604;52.138;5.446;2023-01-28T08:03:35;103303.09;;;1.41;84.29
71768;BME280;59604;52.138;5.446;2023-01-28T08:06:01;103319.44;;;1.43;84.35
71768;BME280;59604;52.138;5.446;2023-01-28T08:08:28;103326.38;;;1.43;84.12
71768;BME280;59604;52.138;5.446;2023-01-28T08:10:54;103321.16;;;1.44;83.76
71768;BME280;59604;52.138;5.446;2023-01-28T08:13:21;103324.72;;;1.42;83.81
71768;BME280;59604;52.138;5.446;2023-01-28T08:15:48;103321.31;;;1.40;83.75
71768;BME280;59604;52.138;5.446;2023-01-28T08:18:15;103321.47;;;1.37;84.04
71768;BME280;59604;52.138;5.446;2023-01-28T08:20:43;103323.28;;;1.35;83.86
71768;BME280;59604;52.138;5.446;2023-01-28T08:23:12;103332.75;;;1.36;83.78
71768;BME280;59604;52.138;5.446;2023-01-28T08:25:40;103336.97;;;1.38;84.39
71768;BME280;59604;52.138;5.446;2023-01-28T08:28:07;103332.63;;;1.39;83.78
71768;BME280;59604;52.138;5.446;2023-01-28T08:30:35;103336.91;;;1.40;83.60
71768;BME280;59604;52.138;5.446;2023-01-28T08:33:04;103337.63;;;1.43;83.92
71768;BME280;59604;52.138;5.446;2023-01-28T08:35:32;103344.56;;;1.43;84.93
71768;BME280;59604;52.138;5.446;2023-01-28T08:38:00;103354.94;;;1.43;84.65
71768;BME280;59604;52.138;5.446;2023-01-28T08:40:28;103334.88;;;1.47;84.59
71768;BME280;59604;52.138;5.446;2023-01-28T08:42:55;103336.44;;;1.51;85.03
71768;BME280;59604;52.138;5.446;2023-01-28T08:45:24;103339.00;;;1.52;84.97
71768;BME280;59604;52.138;5.446;2023-01-28T08:50:25;103345.66;;;1.58;84.98
71768;BME280;59604;52.138;5.446;2023-01-28T08:52:56;103348.91;;;1.63;85.01
71768;BME280;59604;52.138;5.446;2023-01-28T08:55:25;103355.31;;;1.75;84.63
71768;BME280;59604;52.138;5.446;2023-01-28T08:57:52;103372.38;;;1.80;83.90
71768;BME280;59604;52.138;5.446;2023-01-28T09:00:19;103360.25;;;1.81;83.32
71768;BME280;59604;52.138;5.446;2023-01-28T09:02:49;103365.63;;;1.76;82.64
71768;BME280;59604;52.138;5.446;2023-01-28T09:05:16;103361.34;;;1.75;82.62
71768;BME280;59604;52.138;5.446;2023-01-28T09:07:43;103362.75;;;1.82;82.81
71768;BME280;59604;52.138;5.446;2023-01-28T09:10:10;103368.53;;;1.89;82.78
71768;BME280;59604;52.138;5.446;2023-01-28T09:12:37;103365.81;;;1.92;82.07
71768;BME280;59604;52.138;5.446;2023-01-28T09:15:04;103361.31;;;1.96;81.70
71768;BME280;59604;52.138;5.446;2023-01-28T09:17:31;103362.78;;;2.01;81.56
71768;BME280;59604;52.138;5.446;2023-01-28T09:19:57;103369.53;;;2.05;81.27
71768;BME280;59604;52.138;5.446;2023-01-28T09:22:24;103375.38;;;2.10;80.79
71768;BME280;59604;52.138;5.446;2023-01-28T09:24:51;103375.22;;;2.13;80.70
71768;BME280;59604;52.138;5.446;2023-01-28T09:27:17;103377.75;;;2.15;80.88
71768;BME280;59604;52.138;5.446;2023-01-28T09:29:44;103383.44;;;2.23;80.70
71768;BME280;59604;52.138;5.446;2023-01-28T09:32:10;103384.75;;;2.32;80.79
71768;BME280;59604;52.138;5.446;2023-01-28T09:34:37;103375.84;;;2.37;81.02
71768;BME280;59604;52.138;5.446;2023-01-28T09:37:04;103383.50;;;2.40;80.03
71768;BME280;59604;52.138;5.446;2023-01-28T09:39:30;103393.97;;;2.39;80.00
71768;BME280;59604;52.138;5.446;2023-01-28T09:45:14;103397.09;;;2.47;79.85
71768;BME280;59604;52.138;5.446;2023-01-28T09:48:01;103407.13;;;2.55;79.69
71768;BME280;59604;52.138;5.446;2023-01-28T09:50:34;103406.91;;;2.59;78.93
71768;BME280;59604;52.138;5.446;2023-01-28T09:56:00;103386.72;;;2.46;79.22
71768;BME280;59604;52.138;5.446;2023-01-28T09:58:27;103395.13;;;2.33;78.99
71768;BME280;59604;52.138;5.446;2023-01-28T10:09:36;103401.38;;;2.29;79.72
71768;BME280;59604;52.138;5.446;2023-01-28T10:12:22;103414.94;;;2.36;79.36
71768;BME280;59604;52.138;5.446;2023-01-28T10:17:50;103396.31;;;2.26;78.77
71768;BME280;59604;52.138;5.446;2023-01-28T10:20:28;103401.50;;;2.26;79.03
71768;BME280;59604;52.138;5.446;2023-01-28T10:23:01;103402.69;;;2.38;79.64
71768;BME280;59604;52.138;5.446;2023-01-28T10:25:31;103385.19;;;2.41;79.99
71768;BME280;59604;52.138;5.446;2023-01-28T10:27:59;103387.94;;;2.38;79.90
71768;BME280;59604;52.138;5.446;2023-01-28T10:30:30;103385.13;;;2.43;79.86
71768;BME280;59604;52.138;5.446;2023-01-28T10:35:40;103384.28;;;2.42;78.72
71768;BME280;59604;52.138;5.446;2023-01-28T10:38:09;103382.03;;;2.35;78.68
71768;BME280;59604;52.138;5.446;2023-01-28T10:40:42;103380.22;;;2.37;79.21
71768;BME280;59604;52.138;5.446;2023-01-28T10:43:09;103377.34;;;2.43;79.13
71768;BME280;59604;52.138;5.446;2023-01-28T10:50:59;103370.19;;;2.47;78.05
71768;BME280;59604;52.138;5.446;2023-01-28T10:53:41;103364.66;;;2.54;78.69
71768;BME280;59604;52.138;5.446;2023-01-28T10:56:15;103359.97;;;2.61;78.87
71768;BME280;59604;52.138;5.446;2023-01-28T10:58:53;103362.31;;;2.67;79.28
71768;BME280;59604;52.138;5.446;2023-01-28T11:01:23;103353.44;;;2.71;79.13
71768;BME280;59604;52.138;5.446;2023-01-28T11:03:55;103352.50;;;2.72;78.44
71768;BME280;59604;52.138;5.446;2023-01-28T11:06:26;103329.63;;;2.79;78.13
71768;BME280;59604;52.138;5.446;2023-01-28T11:08:53;103326.19;;;2.78;77.82
71768;BME280;59604;52.138;5.446;2023-01-28T11:11:27;103324.13;;;2.85;78.28
71768;BME280;59604;52.138;5.446;2023-01-28T11:13:55;103320.47;;;2.89;77.91
71768;BME280;59604;52.138;5.446;2023-01-28T11:16:23;103317.63;;;2.94;78.19
71768;BME280;59604;52.138;5.446;2023-01-28T11:19:01;103300.09;;;2.97;77.98
71768;BME280;59604;52.138;5.446;2023-01-28T11:21:30;103292.38;;;2.96;77.56
71768;BME280;59604;52.138;5.446;2023-01-28T11:24:01;103273.91;;;3.00;77.76
71768;BME280;59604;52.138;5.446;2023-01-28T11:26:37;103278.94;;;3.03;77.30
71768;BME280;59604;52.138;5.446;2023-01-28T11:29:05;103288.28;;;3.07;77.41
71768;BME280;59604;52.138;5.446;2023-01-28T11:31:40;103270.59;;;3.14;77.11
71768;BME280;59604;52.138;5.446;2023-01-28T11:34:18;103267.75;;;3.19;76.11
71768;BME280;59604;52.138;5.446;2023-01-28T11:36:53;103268.34;;;3.24;75.99
71768;BME280;59604;52.138;5.446;2023-01-28T11:39:24;103256.94;;;3.26;75.82
71768;BME280;59604;52.138;5.446;2023-01-28T11:41:53;103250.28;;;3.21;75.42
71768;BME280;59604;52.138;5.446;2023-01-28T11:44:28;103255.50;;;3.21;75.32
71768;BME280;59604;52.138;5.446;2023-01-28T11:53:15;103273.47;;;3.25;74.42
71768;BME280;59604;52.138;5.446;2023-01-28T11:58:48;103277.09;;;3.38;74.58
71768;BME280;59604;52.138;5.446;2023-01-28T12:01:37;103284.72;;;3.43;74.46
71768;BME280;59604;52.138;5.446;2023-01-28T12:04:39;103284.31;;;3.51;74.70
71768;BME280;59604;52.138;5.446;2023-01-28T12:07:22;103287.25;;;3.60;74.74
71768;BME280;59604;52.138;5.446;2023-01-28T12:18:17;103287.03;;;3.65;74.21
71768;BME280;59604;52.138;5.446;2023-01-28T12:21:05;103278.09;;;3.69;73.79
71768;BME280;59604;52.138;5.446;2023-01-28T12:23:47;103283.16;;;3.72;74.19
71768;BME280;59604;52.138;5.446;2023-01-28T12:45:26;103266.75;;;4.18;73.65
71768;BME280;59604;52.138;5.446;2023-01-28T12:48:02;103273.06;;;4.14;73.20
71768;BME280;59604;52.138;5.446;2023-01-28T12:50:38;103262.53;;;4.15;73.35
71768;BME280;59604;52.138;5.446;2023-01-28T12:53:19;103257.66;;;4.25;73.01
71768;BME280;59604;52.138;5.446;2023-01-28T12:55:53;103244.50;;;4.26;72.33
71768;BME280;59604;52.138;5.446;2023-01-28T12:58:38;103241.00;;;4.27;73.63
71768;BME280;59604;52.138;5.446;2023-01-28T13:01:12;103229.91;;;4.38;73.17
71768;BME280;59604;52.138;5.446;2023-01-28T13:03:57;103220.56;;;4.50;73.33
71768;BME280;59604;52.138;5.446;2023-01-28T13:06:32;103221.97;;;4.55;73.02
71768;BME280;59604;52.138;5.446;2023-01-28T13:09:10;103208.06;;;4.55;73.02
71768;BME280;59604;52.138;5.446;2023-01-28T13:11:40;103206.63;;;4.65;72.95
71768;BME280;59604;52.138;5.446;2023-01-28T13:14:09;103194.03;;;4.72;72.77
71768;BME280;59604;52.138;5.446;2023-01-28T13:16:38;103196.44;;;4.75;73.39
71768;BME280;59604;52.138;5.446;2023-01-28T13:21:46;103200.75;;;4.76;72.98
71768;BME280;59604;52.138;5.446;2023-01-28T13:26:43;103206.88;;;4.75;72.70
71768;BME280;59604;52.138;5.446;2023-01-28T13:31:42;103209.03;;;4.68;72.17
71768;BME280;59604;52.138;5.446;2023-01-28T13:37:36;103196.69;;;4.56;71.59
71768;BME280;59604;52.138;5.446;2023-01-28T13:40:22;103203.50;;;4.58;71.61
71768;BME280;59604;52.138;5.446;2023-01-28T13:43:24;103210.34;;;4.61;71.41
71768;BME280;59604;52.138;5.446;2023-01-28T13:45:57;103201.09;;;4.55;71.53
71768;BME280;59604;52.138;5.446;2023-01-28T13:48:47;103200.06;;;4.58;71.06
71768;BME280;59604;52.138;5.446;2023-01-28T13:51:19;103207.97;;;4.56;71.03
71768;BME280;59604;52.138;5.446;2023-01-28T13:53:55;103202.75;;;4.56;70.96
71768;BME280;59604;52.138;5.446;2023-01-28T13:56:30;103196.91;;;4.53;70.78
71768;BME280;59604;52.138;5.446;2023-01-28T13:59:17;103197.28;;;4.61;70.73
71768;BME280;59604;52.138;5.446;2023-01-28T14:07:17;103206.78;;;4.62;70.79
71768;BME280;59604;52.138;5.446;2023-01-28T14:10:03;103219.66;;;4.65;70.21
71768;BME280;59604;52.138;5.446;2023-01-28T14:18:28;103235.16;;;4.68;70.70
71768;BME280;59604;52.138;5.446;2023-01-28T14:21:01;103228.22;;;4.67;70.71
71768;BME280;59604;52.138;5.446;2023-01-28T14:23:28;103228.06;;;4.70;70.64
71768;BME280;59604;52.138;5.446;2023-01-28T14:28:53;103219.38;;;4.70;70.39
71768;BME280;59604;52.138;5.446;2023-01-28T14:31:30;103213.69;;;4.63;70.45
71768;BME280;59604;52.138;5.446;2023-01-28T14:34:05;103198.00;;;4.63;70.19
71768;BME280;59604;52.138;5.446;2023-01-28T14:36:43;103210.22;;;4.63;71.00
71768;BME280;59604;52.138;5.446;2023-01-28T14:39:32;103203.63;;;4.57;71.60
71768;BME280;59604;52.138;5.446;2023-01-28T14:42:04;103210.59;;;4.56;71.34
71768;BME280;59604;52.138;5.446;2023-01-28T14:44:42;103208.19;;;4.53;71.39
71768;BME280;59604;52.138;5.446;2023-01-28T14:56:12;103208.88;;;4.41;71.97
71768;BME280;59604;52.138;5.446;2023-01-28T14:58:24;103215.56;;;4.31;71.91
71768;BME280;59604;52.138;5.446;2023-01-28T15:00:57;103213.13;;;4.28;72.35
71768;BME280;59604;52.138;5.446;2023-01-28T15:03:28;103227.94;;;4.27;72.36
71768;BME280;59604;52.138;5.446;2023-01-28T15:06:29;103225.56;;;4.23;72.57
71768;BME280;59604;52.138;5.446;2023-01-28T15:09:06;103231.06;;;4.18;72.59
71768;BME280;59604;52.138;5.446;2023-01-28T15:11:36;103228.06;;;4.10;73.05
71768;BME280;59604;52.138;5.446;2023-01-28T15:14:12;103230.25;;;4.02;72.96
71768;BME280;59604;52.138;5.446;2023-01-28T15:16:46;103236.66;;;3.96;73.74
71768;BME280;59604;52.138;5.446;2023-01-28T15:19:13;103242.19;;;3.90;73.88